sensor_id;sensor_type;location;lat;lon;timestamp;temperature;humidity
32536;DHT22;18974;50.838;4.636;2023-05-07T00:01:26;16.00;99.90
32536;DHT22;18974;50.838;4.636;2023-05-07T00:03:51;16.00;99.90
32536;DHT22;18974;50.838;4.636;2023-05-07T00:06:17;16.00;99.90
32536;DHT22;18974;50.838;4.636;2023-05-07T00:08:43;16.00;99.90
32536;DHT22;18974;50.838;4.636;2023-05-07T00:11:08;16.00;99.90
32536;DHT22;18974;50.838;4.636;2023-05-07T00:13:34;16.00;99.90
32536;DHT22;18974;50.838;4.636;2023-05-07T00:16:04;16.00;99.90
32536;DHT22;18974;50.838;4.636;2023-05-07T00:18:30;16.00;99.90
32536;DHT22;18974;50.838;4.636;2023-05-07T00:20:56;16.00;99.90
32536;DHT22;18974;50.838;4.636;2023-05-07T00:23:22;16.00;99.90
32536;DHT22;18974;50.838;4.636;2023-05-07T00:25:50;16.00;99.90
32536;DHT22;18974;50.838;4.636;2023-05-07T00:28:15;15.90;99.90
32536;DHT22;18974;50.838;4.636;2023-05-07T00:30:41;15.90;99.90
32536;DHT22;18974;50.838;4.636;2023-05-07T00:33:07;15.90;99.90
32536;DHT22;18974;50.838;4.636;2023-05-07T00:35:32;15.90;99.90
32536;DHT22;18974;50.838;4.636;2023-05-07T00:37:58;16.00;99.90
32536;DHT22;18974;50.838;4.636;2023-05-07T00:40:24;16.00;99.90
32536;DHT22;18974;50.838;4.636;2023-05-07T00:42:50;15.90;99.90
32536;DHT22;18974;50.838;4.636;2023-05-07T00:45:16;16.00;99.90
32536;DHT22;18974;50.838;4.636;2023-05-07T00:47:43;16.00;99.90
32536;DHT22;18974;50.838;4.636;2023-05-07T00:50:09;16.00;99.90
32536;DHT22;18974;50.838;4.636;2023-05-07T00:52:38;16.10;99.90
32536;DHT22;18974;50.838;4.636;2023-05-07T00:55:05;16.10;99.90
32536;DHT22;18974;50.838;4.636;2023-05-07T00:57:40;16.00;99.90
32536;DHT22;18974;50.838;4.636;2023-05-07T01:00:07;16.00;99.90
32536;DHT22;18974;50.838;4.636;2023-05-07T01:02:41;16.00;99.90
32536;DHT22;18974;50.838;4.636;2023-05-07T01:05:09;15.90;99.90
32536;DHT22;18974;50.838;4.636;2023-05-07T01:07:37;16.00;99.90
32536;DHT22;18974;50.838;4.636;2023-05-07T01:10:04;16.00;99.90
32536;DHT22;18974;50.838;4.636;2023-05-07T01:12:32;16.00;99.90
32536;DHT22;18974;50.838;4.636;2023-05-07T01:14:58;16.00;99.90
32536;DHT22;18974;50.838;4.636;2023-05-07T01:17:24;16.00;99.90
32536;DHT22;18974;50.838;4.636;2023-05-07T01:19:50;16.00;99.90
32536;DHT22;18974;50.838;4.636;2023-05-07T01:22:17;16.00;99.90
32536;DHT22;18974;50.838;4.636;2023-05-07T01:24:46;16.00;99.90
32536;DHT22;18974;50.838;4.636;2023-05-07T01:27:12;16.00;99.90
32536;DHT22;18974;50.838;4.636;2023-05-07T01:29:38;15.90;99.90
32536;DHT22;18974;50.838;4.636;2023-05-07T01:32:05;16.00;99.90
32536;DHT22;18974;50.838;4.636;2023-05-07T01:34:32;16.00;99.90
32536;DHT22;18974;50.838;4.636;2023-05-07T01:37:00;15.90;99.90
32536;DHT22;18974;50.838;4.636;2023-05-07T01:39:27;15.90;99.90
32536;DHT22;18974;50.838;4.636;2023-05-07T01:41:55;15.80;99.90
32536;DHT22;18974;50.838;4.636;2023-05-07T01:44:22;15.90;99.90
32536;DHT22;18974;50.838;4.636;2023-05-07T01:46:48;16.00;99.90
32536;DHT22;18974;50.838;4.636;2023-05-07T01:49:15;16.00;99.90
32536;DHT22;18974;50.838;4.636;2023-05-07T01:51:41;16.00;99.90
32536;DHT22;18974;50.838;4.636;2023-05-07T01:54:07;15.80;99.90
32536;DHT22;18974;50.838;4.636;2023-05-07T01:56:33;15.70;99.90
32536;DHT22;18974;50.838;4.636;2023-05-07T01:58:59;15.80;99.90
32536;DHT22;18974;50.838;4.636;2023-05-07T02:01:25;15.80;99.90
32536;DHT22;18974;50.838;4.636;2023-05-07T02:03:51;15.80;99.90
32536;DHT22;18974;50.838;4.636;2023-05-07T02:06:16;15.80;99.90
32536;DHT22;18974;50.838;4.636;2023-05-07T02:08:42;15.80;99.90
32536;DHT22;18974;50.838;4.636;2023-05-07T02:11:08;15.80;99.90
32536;DHT22;18974;50.838;4.636;2023-05-07T02:13:33;15.80;99.90
32536;DHT22;18974;50.838;4.636;2023-05-07T02:16:02;15.70;99.90
32536;DHT22;18974;50.838;4.636;2023-05-07T02:18:28;15.80;99.90
32536;DHT22;18974;50.838;4.636;2023-05-07T02:20:54;15.80;99.90
32536;DHT22;18974;50.838;4.636;2023-05-07T02:23:20;15.80;99.90
32536;DHT22;18974;50.838;4.636;2023-05-07T02:25:45;15.80;99.90
32536;DHT22;18974;50.838;4.636;2023-05-07T02:28:11;15.90;99.90
32536;DHT22;18974;50.838;4.636;2023-05-07T02:30:37;15.90;99.90
32536;DHT22;18974;50.838;4.636;2023-05-07T02:33:03;15.90;99.90
32536;DHT22;18974;50.838;4.636;2023-05-07T02:35:29;15.90;99.90
32536;DHT22;18974;50.838;4.636;2023-05-07T02:37:54;15.80;99.90
32536;DHT22;18974;50.838;4.636;2023-05-07T02:40:20;15.80;99.90
32536;DHT22;18974;50.838;4.636;2023-05-07T02:42:46;15.70;99.90
32536;DHT22;18974;50.838;4.636;2023-05-07T02:45:12;15.70;99.90
32536;DHT22;18974;50.838;4.636;2023-05-07T02:47:37;15.70;99.90
32536;DHT22;18974;50.838;4.636;2023-05-07T02:50:03;15.70;99.90
32536;DHT22;18974;50.838;4.636;2023-05-07T02:52:29;15.70;99.90
32536;DHT22;18974;50.838;4.636;2023-05-07T02:54:55;15.70;99.90
32536;DHT22;18974;50.838;4.636;2023-05-07T02:57:21;15.60;99.90
32536;DHT22;18974;50.838;4.636;2023-05-07T02:59:46;15.60;99.90
32536;DHT22;18974;50.838;4.636;2023-05-07T03:02:12;15.50;99.90
32536;DHT22;18974;50.838;4.636;2023-05-07T03:04:39;15.50;99.90
32536;DHT22;18974;50.838;4.636;2023-05-07T03:07:05;15.40;99.90
32536;DHT22;18974;50.838;4.636;2023-05-07T03:09:30;15.30;99.90
32536;DHT22;18974;50.838;4.636;2023-05-07T03:11:56;15.20;99.90
32536;DHT22;18974;50.838;4.636;2023-05-07T03:14:22;15.10;99.90
32536;DHT22;18974;50.838;4.636;2023-05-07T03:16:49;15.10;99.90
32536;DHT22;18974;50.838;4.636;2023-05-07T03:19:15;15.20;99.90
32536;DHT22;18974;50.838;4.636;2023-05-07T03:21:40;15.20;99.90
32536;DHT22;18974;50.838;4.636;2023-05-07T03:24:06;15.20;99.90
32536;DHT22;18974;50.838;4.636;2023-05-07T03:26:32;15.20;99.90
32536;DHT22;18974;50.838;4.636;2023-05-07T03:28:57;15.20;99.90
32536;DHT22;18974;50.838;4.636;2023-05-07T03:31:23;15.30;99.90
32536;DHT22;18974;50.838;4.636;2023-05-07T03:33:51;15.40;99.90
32536;DHT22;18974;50.838;4.636;2023-05-07T03:36:17;15.40;99.90
32536;DHT22;18974;50.838;4.636;2023-05-07T03:38:43;15.40;99.90
32536;DHT22;18974;50.838;4.636;2023-05-07T03:41:09;15.50;99.90
32536;DHT22;18974;50.838;4.636;2023-05-07T03:43:34;15.60;99.90
32536;DHT22;18974;50.838;4.636;2023-05-07T03:46:00;15.50;99.90
32536;DHT22;18974;50.838;4.636;2023-05-07T03:48:26;15.50;99.90
32536;DHT22;18974;50.838;4.636;2023-05-07T03:50:51;15.60;99.90
32536;DHT22;18974;50.838;4.636;2023-05-07T03:53:17;15.60;99.90
32536;DHT22;18974;50.838;4.636;2023-05-07T03:55:43;15.50;99.90
32536;DHT22;18974;50.838;4.636;2023-05-07T03:58:08;15.50;99.90
32536;DHT22;18974;50.838;4.636;2023-05-07T04:00:34;15.60;99.90
32536;DHT22;18974;50.838;4.636;2023-05-07T04:03:04;15.60;99.90
32536;DHT22;18974;50.838;4.636;2023-05-07T04:05:30;15.60;99.90
32536;DHT22;18974;50.838;4.636;2023-05-07T04:07:57;15.60;99.90
32536;DHT22;18974;50.838;4.636;2023-05-07T04:10:23;15.50;99.90
32536;DHT22;18974;50.838;4.636;2023-05-07T04:12:48;15.50;99.90
32536;DHT22;18974;50.838;4.636;2023-05-07T04:15:14;15.50;99.90
32536;DHT22;18974;50.838;4.636;2023-05-07T04:17:40;15.50;99.90
32536;DHT22;18974;50.838;4.636;2023-05-07T04:20:09;15.50;99.90
32536;DHT22;18974;50.838;4.636;2023-05-07T04:22:36;15.50;99.90
32536;DHT22;18974;50.838;4.636;2023-05-07T04:25:02;15.60;99.90
32536;DHT22;18974;50.838;4.636;2023-05-07T04:27:28;15.60;99.90
32536;DHT22;18974;50.838;4.636;2023-05-07T04:29:54;15.50;99.90
32536;DHT22;18974;50.838;4.636;2023-05-07T04:32:22;15.50;99.90
32536;DHT22;18974;50.838;4.636;2023-05-07T04:34:47;15.50;99.90
32536;DHT22;18974;50.838;4.636;2023-05-07T04:37:13;15.50;99.90
32536;DHT22;18974;50.838;4.636;2023-05-07T04:39:39;15.50;99.90
32536;DHT22;18974;50.838;4.636;2023-05-07T04:42:04;15.50;99.90
32536;DHT22;18974;50.838;4.636;2023-05-07T04:44:34;15.40;99.90
32536;DHT22;18974;50.838;4.636;2023-05-07T04:47:00;15.40;99.90
32536;DHT22;18974;50.838;4.636;2023-05-07T04:49:26;15.40;99.90
32536;DHT22;18974;50.838;4.636;2023-05-07T04:51:52;15.50;99.90
32536;DHT22;18974;50.838;4.636;2023-05-07T04:54:18;15.50;99.90
32536;DHT22;18974;50.838;4.636;2023-05-07T04:56:43;15.60;99.90
32536;DHT22;18974;50.838;4.636;2023-05-07T04:59:09;15.60;99.90
32536;DHT22;18974;50.838;4.636;2023-05-07T05:01:35;15.70;99.90
32536;DHT22;18974;50.838;4.636;2023-05-07T05:04:00;15.80;99.90
32536;DHT22;18974;50.838;4.636;2023-05-07T05:06:26;15.80;99.90
32536;DHT22;18974;50.838;4.636;2023-05-07T05:08:52;16.00;99.90
32536;DHT22;18974;50.838;4.636;2023-05-07T05:11:17;16.10;99.90
32536;DHT22;18974;50.838;4.636;2023-05-07T05:13:43;16.10;99.90
32536;DHT22;18974;50.838;4.636;2023-05-07T05:16:09;16.10;99.90
32536;DHT22;18974;50.838;4.636;2023-05-07T05:18:34;16.00;99.90
32536;DHT22;18974;50.838;4.636;2023-05-07T05:21:00;16.10;99.90
32536;DHT22;18974;50.838;4.636;2023-05-07T05:23:26;16.10;99.90
32536;DHT22;18974;50.838;4.636;2023-05-07T05:25:56;16.20;99.90
32536;DHT22;18974;50.838;4.636;2023-05-07T05:28:23;16.40;99.90
32536;DHT22;18974;50.838;4.636;2023-05-07T05:30:49;16.40;99.90
32536;DHT22;18974;50.838;4.636;2023-05-07T05:33:15;16.40;99.90
32536;DHT22;18974;50.838;4.636;2023-05-07T05:35:41;16.40;99.90
32536;DHT22;18974;50.838;4.636;2023-05-07T05:38:06;16.40;99.90
32536;DHT22;18974;50.838;4.636;2023-05-07T05:40:32;16.50;99.90
32536;DHT22;18974;50.838;4.636;2023-05-07T05:42:59;16.50;99.90
32536;DHT22;18974;50.838;4.636;2023-05-07T05:45:25;16.50;99.90
32536;DHT22;18974;50.838;4.636;2023-05-07T05:47:50;16.40;99.90
32536;DHT22;18974;50.838;4.636;2023-05-07T05:50:16;16.50;99.90
32536;DHT22;18974;50.838;4.636;2023-05-07T05:52:42;16.50;99.90
32536;DHT22;18974;50.838;4.636;2023-05-07T05:55:08;16.60;99.90
32536;DHT22;18974;50.838;4.636;2023-05-07T05:57:34;16.70;99.90
32536;DHT22;18974;50.838;4.636;2023-05-07T06:00:01;16.70;99.90
32536;DHT22;18974;50.838;4.636;2023-05-07T06:02:27;16.70;99.90
32536;DHT22;18974;50.838;4.636;2023-05-07T06:04:53;16.80;99.90
32536;DHT22;18974;50.838;4.636;2023-05-07T06:07:19;16.70;99.90
32536;DHT22;18974;50.838;4.636;2023-05-07T06:09:45;16.70;99.90
32536;DHT22;18974;50.838;4.636;2023-05-07T06:12:11;16.80;99.90
32536;DHT22;18974;50.838;4.636;2023-05-07T06:14:37;16.80;99.90
32536;DHT22;18974;50.838;4.636;2023-05-07T06:17:02;16.90;99.90
32536;DHT22;18974;50.838;4.636;2023-05-07T06:19:28;17.10;99.90
32536;DHT22;18974;50.838;4.636;2023-05-07T06:21:54;17.10;99.90
32536;DHT22;18974;50.838;4.636;2023-05-07T06:24:21;17.00;99.90
32536;DHT22;18974;50.838;4.636;2023-05-07T06:26:47;16.90;99.90
32536;DHT22;18974;50.838;4.636;2023-05-07T06:29:14;16.90;99.90
32536;DHT22;18974;50.838;4.636;2023-05-07T06:31:40;16.80;99.90
32536;DHT22;18974;50.838;4.636;2023-05-07T06:39:43;17.10;99.90
32536;DHT22;18974;50.838;4.636;2023-05-07T06:42:09;17.10;99.90
32536;DHT22;18974;50.838;4.636;2023-05-07T06:44:35;17.10;99.90
32536;DHT22;18974;50.838;4.636;2023-05-07T06:47:00;17.10;99.90
32536;DHT22;18974;50.838;4.636;2023-05-07T06:49:26;17.20;99.90
32536;DHT22;18974;50.838;4.636;2023-05-07T06:51:52;17.40;99.90
32536;DHT22;18974;50.838;4.636;2023-05-07T06:54:18;17.40;99.90
32536;DHT22;18974;50.838;4.636;2023-05-07T06:56:44;17.60;99.90
32536;DHT22;18974;50.838;4.636;2023-05-07T06:59:12;17.80;99.90
32536;DHT22;18974;50.838;4.636;2023-05-07T07:01:37;18.00;99.90
32536;DHT22;18974;50.838;4.636;2023-05-07T07:04:03;18.20;99.90
32536;DHT22;18974;50.838;4.636;2023-05-07T07:06:29;18.30;99.90
32536;DHT22;18974;50.838;4.636;2023-05-07T07:08:57;18.40;99.90
32536;DHT22;18974;50.838;4.636;2023-05-07T07:11:23;18.60;99.90
32536;DHT22;18974;50.838;4.636;2023-05-07T07:13:49;18.70;99.90
32536;DHT22;18974;50.838;4.636;2023-05-07T07:16:16;18.70;99.90
32536;DHT22;18974;50.838;4.636;2023-05-07T07:18:42;18.80;99.90
32536;DHT22;18974;50.838;4.636;2023-05-07T07:21:07;18.80;99.90
32536;DHT22;18974;50.838;4.636;2023-05-07T07:23:33;18.90;99.90
32536;DHT22;18974;50.838;4.636;2023-05-07T07:25:59;18.90;99.90
32536;DHT22;18974;50.838;4.636;2023-05-07T07:28:24;19.00;99.90
32536;DHT22;18974;50.838;4.636;2023-05-07T07:30:50;19.00;99.90
32536;DHT22;18974;50.838;4.636;2023-05-07T07:33:16;19.00;99.90
32536;DHT22;18974;50.838;4.636;2023-05-07T07:35:42;19.00;99.90
32536;DHT22;18974;50.838;4.636;2023-05-07T07:38:07;19.00;99.90
32536;DHT22;18974;50.838;4.636;2023-05-07T07:40:34;19.00;99.90
32536;DHT22;18974;50.838;4.636;2023-05-07T07:43:00;19.00;99.90
32536;DHT22;18974;50.838;4.636;2023-05-07T07:45:27;18.90;99.90
32536;DHT22;18974;50.838;4.636;2023-05-07T07:47:52;18.90;99.90
32536;DHT22;18974;50.838;4.636;2023-05-07T07:50:18;18.90;99.90
32536;DHT22;18974;50.838;4.636;2023-05-07T07:52:45;18.90;99.90
32536;DHT22;18974;50.838;4.636;2023-05-07T07:55:11;18.90;99.90
32536;DHT22;18974;50.838;4.636;2023-05-07T07:57:37;18.90;99.90
32536;DHT22;18974;50.838;4.636;2023-05-07T08:00:03;18.90;99.90
32536;DHT22;18974;50.838;4.636;2023-05-07T08:02:29;18.90;99.90
32536;DHT22;18974;50.838;4.636;2023-05-07T08:04:55;18.90;99.90
32536;DHT22;18974;50.838;4.636;2023-05-07T08:07:21;18.90;99.90
32536;DHT22;18974;50.838;4.636;2023-05-07T08:09:48;18.80;99.90
32536;DHT22;18974;50.838;4.636;2023-05-07T08:12:14;18.80;99.90
32536;DHT22;18974;50.838;4.636;2023-05-07T08:14:40;18.70;99.90
32536;DHT22;18974;50.838;4.636;2023-05-07T08:17:06;18.70;99.90
32536;DHT22;18974;50.838;4.636;2023-05-07T08:19:32;18.60;99.90
32536;DHT22;18974;50.838;4.636;2023-05-07T08:21:58;18.60;99.90
32536;DHT22;18974;50.838;4.636;2023-05-07T08:24:23;18.60;99.90
32536;DHT22;18974;50.838;4.636;2023-05-07T08:26:49;18.70;99.90
32536;DHT22;18974;50.838;4.636;2023-05-07T08:29:15;18.70;99.90
32536;DHT22;18974;50.838;4.636;2023-05-07T08:31:41;18.70;99.90
32536;DHT22;18974;50.838;4.636;2023-05-07T08:34:06;18.70;99.90
32536;DHT22;18974;50.838;4.636;2023-05-07T08:36:33;18.60;99.90
32536;DHT22;18974;50.838;4.636;2023-05-07T08:38:59;18.60;99.90
32536;DHT22;18974;50.838;4.636;2023-05-07T08:41:25;18.70;99.90
32536;DHT22;18974;50.838;4.636;2023-05-07T08:43:51;18.60;99.90
32536;DHT22;18974;50.838;4.636;2023-05-07T08:46:19;18.70;99.90
32536;DHT22;18974;50.838;4.636;2023-05-07T08:48:48;18.60;99.90
32536;DHT22;18974;50.838;4.636;2023-05-07T08:51:16;18.60;99.90
32536;DHT22;18974;50.838;4.636;2023-05-07T08:53:42;18.50;99.90
32536;DHT22;18974;50.838;4.636;2023-05-07T08:56:12;18.50;99.90
32536;DHT22;18974;50.838;4.636;2023-05-07T08:58:37;18.40;99.90
32536;DHT22;18974;50.838;4.636;2023-05-07T09:01:11;18.30;99.90
32536;DHT22;18974;50.838;4.636;2023-05-07T09:03:38;18.40;99.90
32536;DHT22;18974;50.838;4.636;2023-05-07T09:06:04;18.40;99.90
32536;DHT22;18974;50.838;4.636;2023-05-07T09:08:32;18.40;99.90
32536;DHT22;18974;50.838;4.636;2023-05-07T09:10:59;18.50;99.90
32536;DHT22;18974;50.838;4.636;2023-05-07T09:13:24;18.60;99.90
32536;DHT22;18974;50.838;4.636;2023-05-07T09:15:50;18.50;99.90
32536;DHT22;18974;50.838;4.636;2023-05-07T09:18:16;18.60;99.90
32536;DHT22;18974;50.838;4.636;2023-05-07T09:20:41;18.50;99.90
32536;DHT22;18974;50.838;4.636;2023-05-07T09:23:08;18.50;99.90
32536;DHT22;18974;50.838;4.636;2023-05-07T09:25:35;18.60;99.90
32536;DHT22;18974;50.838;4.636;2023-05-07T09:28:02;18.80;99.90
32536;DHT22;18974;50.838;4.636;2023-05-07T09:30:29;18.70;99.90
32536;DHT22;18974;50.838;4.636;2023-05-07T09:33:00;18.70;99.90
32536;DHT22;18974;50.838;4.636;2023-05-07T09:35:26;18.60;99.90
32536;DHT22;18974;50.838;4.636;2023-05-07T09:37:56;18.60;99.90
32536;DHT22;18974;50.838;4.636;2023-05-07T09:40:29;18.60;99.90
32536;DHT22;18974;50.838;4.636;2023-05-07T09:42:55;18.60;99.90
32536;DHT22;18974;50.838;4.636;2023-05-07T09:45:28;18.60;99.90
32536;DHT22;18974;50.838;4.636;2023-05-07T09:47:55;18.50;99.90
32536;DHT22;18974;50.838;4.636;2023-05-07T09:50:27;18.50;99.90
32536;DHT22;18974;50.838;4.636;2023-05-07T09:52:54;18.50;99.90
32536;DHT22;18974;50.838;4.636;2023-05-07T09:55:21;18.60;99.90
32536;DHT22;18974;50.838;4.636;2023-05-07T09:57:52;18.50;99.90
32536;DHT22;18974;50.838;4.636;2023-05-07T10:00:22;18.50;99.90
32536;DHT22;18974;50.838;4.636;2023-05-07T10:02:49;18.40;99.90
32536;DHT22;18974;50.838;4.636;2023-05-07T10:05:17;18.40;99.90
32536;DHT22;18974;50.838;4.636;2023-05-07T10:07:43;18.60;99.90
32536;DHT22;18974;50.838;4.636;2023-05-07T10:10:10;18.60;99.90
32536;DHT22;18974;50.838;4.636;2023-05-07T10:12:36;18.70;99.90
32536;DHT22;18974;50.838;4.636;2023-05-07T10:15:08;18.50;99.90
32536;DHT22;18974;50.838;4.636;2023-05-07T10:17:37;18.60;99.90
32536;DHT22;18974;50.838;4.636;2023-05-07T10:20:04;18.50;99.90
32536;DHT22;18974;50.838;4.636;2023-05-07T10:22:43;18.40;99.90
32536;DHT22;18974;50.838;4.636;2023-05-07T10:25:30;18.40;99.90
32536;DHT22;18974;50.838;4.636;2023-05-07T10:28:01;18.40;99.90
32536;DHT22;18974;50.838;4.636;2023-05-07T10:33:04;18.40;99.90
32536;DHT22;18974;50.838;4.636;2023-05-07T10:35:42;18.40;99.90
32536;DHT22;18974;50.838;4.636;2023-05-07T10:38:08;18.50;99.90
32536;DHT22;18974;50.838;4.636;2023-05-07T10:40:34;18.50;99.90
32536;DHT22;18974;50.838;4.636;2023-05-07T10:43:02;18.50;99.90
32536;DHT22;18974;50.838;4.636;2023-05-07T10:45:30;18.50;99.90
32536;DHT22;18974;50.838;4.636;2023-05-07T10:50:37;18.60;99.90
32536;DHT22;18974;50.838;4.636;2023-05-07T10:55:48;18.90;99.90
32536;DHT22;18974;50.838;4.636;2023-05-07T10:58:25;18.90;99.90
32536;DHT22;18974;50.838;4.636;2023-05-07T11:00:59;19.00;99.90
32536;DHT22;18974;50.838;4.636;2023-05-07T11:03:27;19.10;99.90
32536;DHT22;18974;50.838;4.636;2023-05-07T11:06:13;19.00;99.90
32536;DHT22;18974;50.838;4.636;2023-05-07T11:08:55;19.20;99.90
32536;DHT22;18974;50.838;4.636;2023-05-07T11:11:44;19.20;99.90
32536;DHT22;18974;50.838;4.636;2023-05-07T11:14:10;19.20;99.90
32536;DHT22;18974;50.838;4.636;2023-05-07T11:16:36;19.10;99.90
32536;DHT22;18974;50.838;4.636;2023-05-07T11:19:03;19.10;99.90
32536;DHT22;18974;50.838;4.636;2023-05-07T11:21:42;19.10;99.90
32536;DHT22;18974;50.838;4.636;2023-05-07T11:24:11;19.30;99.90
32536;DHT22;18974;50.838;4.636;2023-05-07T11:26:50;19.20;99.90
32536;DHT22;18974;50.838;4.636;2023-05-07T11:29:20;19.40;99.90
32536;DHT22;18974;50.838;4.636;2023-05-07T11:31:51;19.40;99.90
32536;DHT22;18974;50.838;4.636;2023-05-07T11:34:22;19.40;99.90
32536;DHT22;18974;50.838;4.636;2023-05-07T11:36:48;19.40;99.90
32536;DHT22;18974;50.838;4.636;2023-05-07T11:39:31;19.40;99.90
32536;DHT22;18974;50.838;4.636;2023-05-07T11:41:59;19.60;99.90
32536;DHT22;18974;50.838;4.636;2023-05-07T11:44:25;19.70;99.90
32536;DHT22;18974;50.838;4.636;2023-05-07T11:46:51;19.70;99.90
32536;DHT22;18974;50.838;4.636;2023-05-07T11:49:17;19.90;99.90
32536;DHT22;18974;50.838;4.636;2023-05-07T11:51:43;20.10;99.90
32536;DHT22;18974;50.838;4.636;2023-05-07T11:54:09;20.20;99.90
32536;DHT22;18974;50.838;4.636;2023-05-07T11:56:36;20.40;99.90
32536;DHT22;18974;50.838;4.636;2023-05-07T11:59:02;20.60;99.90
32536;DHT22;18974;50.838;4.636;2023-05-07T12:01:28;20.70;99.90
32536;DHT22;18974;50.838;4.636;2023-05-07T12:03:54;20.90;99.90
32536;DHT22;18974;50.838;4.636;2023-05-07T12:06:20;21.10;99.90
32536;DHT22;18974;50.838;4.636;2023-05-07T12:08:46;21.10;99.90
32536;DHT22;18974;50.838;4.636;2023-05-07T12:11:18;21.10;99.90
32536;DHT22;18974;50.838;4.636;2023-05-07T12:13:47;21.30;99.90
32536;DHT22;18974;50.838;4.636;2023-05-07T12:16:13;21.40;99.90
32536;DHT22;18974;50.838;4.636;2023-05-07T12:18:39;21.40;99.90
32536;DHT22;18974;50.838;4.636;2023-05-07T12:21:07;21.20;99.90
32536;DHT22;18974;50.838;4.636;2023-05-07T12:23:36;21.10;99.90
32536;DHT22;18974;50.838;4.636;2023-05-07T12:26:02;21.10;99.90
32536;DHT22;18974;50.838;4.636;2023-05-07T12:28:28;21.10;99.90
32536;DHT22;18974;50.838;4.636;2023-05-07T12:30:54;21.20;99.90
32536;DHT22;18974;50.838;4.636;2023-05-07T12:33:25;21.20;99.90
32536;DHT22;18974;50.838;4.636;2023-05-07T12:35:53;21.30;99.90
32536;DHT22;18974;50.838;4.636;2023-05-07T12:38:19;21.30;99.90
32536;DHT22;18974;50.838;4.636;2023-05-07T12:40:47;21.20;99.90
32536;DHT22;18974;50.838;4.636;2023-05-07T12:45:43;21.10;99.90
32536;DHT22;18974;50.838;4.636;2023-05-07T12:48:10;21.10;99.90
32536;DHT22;18974;50.838;4.636;2023-05-07T12:50:36;20.80;99.90
32536;DHT22;18974;50.838;4.636;2023-05-07T12:53:05;20.80;99.90
32536;DHT22;18974;50.838;4.636;2023-05-07T12:55:32;20.80;99.90
32536;DHT22;18974;50.838;4.636;2023-05-07T12:58:01;20.80;99.90
32536;DHT22;18974;50.838;4.636;2023-05-07T13:00:38;20.80;99.90
32536;DHT22;18974;50.838;4.636;2023-05-07T13:03:04;20.90;99.90
32536;DHT22;18974;50.838;4.636;2023-05-07T13:05:32;20.90;99.90
32536;DHT22;18974;50.838;4.636;2023-05-07T13:07:58;20.90;99.90
32536;DHT22;18974;50.838;4.636;2023-05-07T13:10:24;21.00;99.90
32536;DHT22;18974;50.838;4.636;2023-05-07T13:12:50;21.10;99.90
32536;DHT22;18974;50.838;4.636;2023-05-07T13:15:17;21.20;99.90
32536;DHT22;18974;50.838;4.636;2023-05-07T13:17:43;21.30;99.90
32536;DHT22;18974;50.838;4.636;2023-05-07T13:20:12;21.30;99.90
32536;DHT22;18974;50.838;4.636;2023-05-07T13:22:40;21.30;99.90
32536;DHT22;18974;50.838;4.636;2023-05-07T13:25:07;21.40;99.90
32536;DHT22;18974;50.838;4.636;2023-05-07T13:27:32;21.50;99.90
32536;DHT22;18974;50.838;4.636;2023-05-07T13:30:03;21.60;99.90
32536;DHT22;18974;50.838;4.636;2023-05-07T13:32:28;21.70;99.90
32536;DHT22;18974;50.838;4.636;2023-05-07T13:34:55;21.80;99.90
32536;DHT22;18974;50.838;4.636;2023-05-07T13:37:20;21.90;99.90
32536;DHT22;18974;50.838;4.636;2023-05-07T13:39:46;21.80;99.90
32536;DHT22;18974;50.838;4.636;2023-05-07T13:42:12;21.80;99.90
32536;DHT22;18974;50.838;4.636;2023-05-07T13:44:37;21.80;99.90
32536;DHT22;18974;50.838;4.636;2023-05-07T13:47:03;21.70;99.90
32536;DHT22;18974;50.838;4.636;2023-05-07T13:49:29;21.60;99.90
32536;DHT22;18974;50.838;4.636;2023-05-07T13:51:55;21.60;99.90
32536;DHT22;18974;50.838;4.636;2023-05-07T13:54:21;21.40;99.90
32536;DHT22;18974;50.838;4.636;2023-05-07T13:56:46;21.30;99.90
32536;DHT22;18974;50.838;4.636;2023-05-07T13:59:12;21.20;99.90
32536;DHT22;18974;50.838;4.636;2023-05-07T14:01:40;21.10;99.90
32536;DHT22;18974;50.838;4.636;2023-05-07T14:04:06;21.10;99.90
32536;DHT22;18974;50.838;4.636;2023-05-07T14:06:31;21.10;99.90
32536;DHT22;18974;50.838;4.636;2023-05-07T14:08:57;21.10;99.90
32536;DHT22;18974;50.838;4.636;2023-05-07T14:11:23;21.10;99.90
32536;DHT22;18974;50.838;4.636;2023-05-07T14:13:49;21.00;99.90
32536;DHT22;18974;50.838;4.636;2023-05-07T14:16:14;21.00;99.90
32536;DHT22;18974;50.838;4.636;2023-05-07T14:18:40;20.90;99.90
32536;DHT22;18974;50.838;4.636;2023-05-07T14:21:06;20.90;99.90
32536;DHT22;18974;50.838;4.636;2023-05-07T14:23:32;20.80;99.90
32536;DHT22;18974;50.838;4.636;2023-05-07T14:25:58;20.70;99.90
32536;DHT22;18974;50.838;4.636;2023-05-07T14:28:24;20.60;99.90
32536;DHT22;18974;50.838;4.636;2023-05-07T14:30:49;20.60;99.90
32536;DHT22;18974;50.838;4.636;2023-05-07T14:33:17;20.50;99.90
32536;DHT22;18974;50.838;4.636;2023-05-07T14:35:42;20.50;99.90
32536;DHT22;18974;50.838;4.636;2023-05-07T14:38:13;20.50;99.90
32536;DHT22;18974;50.838;4.636;2023-05-07T14:40:39;20.50;99.90
32536;DHT22;18974;50.838;4.636;2023-05-07T14:43:04;20.50;99.90
32536;DHT22;18974;50.838;4.636;2023-05-07T14:45:30;20.50;99.90
32536;DHT22;18974;50.838;4.636;2023-05-07T14:47:56;20.50;99.90
32536;DHT22;18974;50.838;4.636;2023-05-07T14:50:21;20.50;99.90
32536;DHT22;18974;50.838;4.636;2023-05-07T14:52:47;20.50;99.90
32536;DHT22;18974;50.838;4.636;2023-05-07T14:55:13;20.50;99.90
32536;DHT22;18974;50.838;4.636;2023-05-07T14:57:38;20.30;99.90
32536;DHT22;18974;50.838;4.636;2023-05-07T15:00:05;20.40;99.90
32536;DHT22;18974;50.838;4.636;2023-05-07T15:02:32;20.30;99.90
32536;DHT22;18974;50.838;4.636;2023-05-07T15:04:59;20.30;99.90
32536;DHT22;18974;50.838;4.636;2023-05-07T15:07:24;20.40;99.90
32536;DHT22;18974;50.838;4.636;2023-05-07T15:09:50;20.50;99.90
32536;DHT22;18974;50.838;4.636;2023-05-07T15:12:16;20.60;99.90
32536;DHT22;18974;50.838;4.636;2023-05-07T15:14:42;20.50;99.90
32536;DHT22;18974;50.838;4.636;2023-05-07T15:17:08;20.50;99.90
32536;DHT22;18974;50.838;4.636;2023-05-07T15:19:33;20.40;99.90
32536;DHT22;18974;50.838;4.636;2023-05-07T15:21:59;20.30;99.90
32536;DHT22;18974;50.838;4.636;2023-05-07T15:24:28;20.40;99.90
32536;DHT22;18974;50.838;4.636;2023-05-07T15:26:54;20.40;99.90
32536;DHT22;18974;50.838;4.636;2023-05-07T15:29:20;20.40;99.90
32536;DHT22;18974;50.838;4.636;2023-05-07T15:31:47;20.40;99.90
32536;DHT22;18974;50.838;4.636;2023-05-07T15:34:13;20.50;99.90
32536;DHT22;18974;50.838;4.636;2023-05-07T15:36:40;20.50;99.90
32536;DHT22;18974;50.838;4.636;2023-05-07T15:39:06;20.50;99.90
32536;DHT22;18974;50.838;4.636;2023-05-07T15:41:32;20.50;99.90
32536;DHT22;18974;50.838;4.636;2023-05-07T15:43:57;20.50;99.90